createdAt,value
2023-03-22T00:04:16.176Z,86.13
2023-03-22T00:09:18.298Z,85.91
2023-03-22T00:14:19.726Z,85.81
2023-03-22T00:19:21.183Z,86.14
2023-03-22T00:24:22.988Z,85.89
2023-03-22T00:29:24.472Z,86.13
2023-03-22T00:34:27.115Z,86.41
2023-03-22T00:39:28.591Z,86.76
2023-03-22T00:44:30.156Z,86.81
2023-03-22T00:49:31.617Z,87.11
2023-03-22T00:54:33.117Z,86.78
2023-03-22T00:59:38.450Z,87.34
2023-03-22T01:04:45.769Z,87.45
2023-03-22T01:09:51.948Z,89.13
2023-03-22T01:14:53.370Z,89.39
2023-03-22T01:19:54.805Z,88.23
2023-03-22T01:24:56.309Z,88.33
2023-03-22T01:29:57.755Z,88.20
2023-03-22T01:34:59.224Z,88.75
2023-03-22T01:40:00.728Z,88.99
2023-03-22T01:45:14.330Z,89.30
2023-03-22T01:50:17.361Z,88.83
2023-03-22T01:55:22.655Z,88.53
2023-03-22T02:00:24.174Z,88.84
2023-03-22T02:05:26.416Z,88.55
2023-03-22T02:10:28.562Z,89.01
2023-03-22T02:15:33.882Z,88.67
2023-03-22T02:20:53.005Z,88.64
2023-03-22T02:25:57.229Z,89.45
2023-03-22T02:31:27.868Z,89.93
2023-03-22T02:36:40.224Z,90.25
2023-03-22T02:41:47.808Z,90.30
2023-03-22T02:47:34.278Z,90.53
2023-03-22T02:52:54.420Z,90.71
2023-03-22T02:57:58.356Z,90.98
2023-03-22T03:03:11.342Z,90.95
2023-03-22T03:08:15.454Z,91.13
2023-03-22T03:13:19.135Z,91.17
2023-03-22T03:18:41.277Z,90.91
2023-03-22T03:23:56.043Z,91.58
2023-03-22T03:29:00.724Z,91.53
2023-03-22T03:34:19.373Z,91.48
2023-03-22T03:39:24.126Z,91.52
2023-03-22T03:44:26.386Z,91.83
2023-03-22T03:49:28.077Z,91.20
2023-03-22T03:54:29.514Z,91.00
2023-03-22T03:59:31.122Z,90.78
2023-03-22T04:04:34.793Z,90.93
2023-03-22T04:09:38.442Z,91.21
2023-03-22T04:14:39.890Z,91.09
2023-03-22T04:19:42.221Z,91.53
2023-03-22T04:24:49.975Z,92.15
2023-03-22T04:29:52.329Z,91.93
2023-03-22T04:34:53.748Z,91.84
2023-03-22T04:39:55.212Z,92.58
2023-03-22T04:44:56.641Z,92.24
2023-03-22T04:49:58.080Z,92.46
2023-03-22T04:54:59.516Z,92.86
2023-03-22T05:00:01.005Z,92.52
2023-03-22T05:05:02.462Z,92.56
2023-03-22T05:10:04.193Z,92.87
2023-03-22T05:15:06.685Z,93.03
2023-03-22T05:20:10.219Z,93.44
2023-03-22T05:25:11.740Z,93.58
2023-03-22T05:30:13.414Z,94.07
2023-03-22T05:35:14.953Z,93.99
2023-03-22T05:40:16.959Z,93.66
2023-03-22T05:45:18.866Z,94.40
2023-03-22T05:50:22.832Z,94.65
2023-03-22T05:55:24.755Z,93.98
2023-03-22T06:00:27.075Z,94.12
2023-03-22T06:05:30.306Z,93.56
2023-03-22T06:10:31.731Z,93.12
2023-03-22T06:15:33.186Z,92.85
2023-03-22T06:20:35.371Z,93.13
2023-03-22T06:25:37.156Z,92.70
2023-03-22T06:30:39.047Z,93.04
2023-03-22T06:35:40.898Z,92.60
2023-03-22T06:40:42.515Z,92.00
2023-03-22T06:45:46.925Z,92.81
2023-03-22T06:50:48.461Z,92.10
2023-03-22T06:55:49.931Z,91.07
2023-03-22T07:00:52.099Z,91.71
2023-03-22T07:05:53.577Z,90.33
2023-03-22T07:10:55.016Z,89.65
2023-03-22T07:15:57.775Z,89.71
2023-03-22T07:20:59.874Z,89.04
2023-03-22T07:26:01.545Z,88.07
2023-03-22T07:31:05.947Z,88.31
2023-03-22T07:36:09.004Z,87.88
2023-03-22T07:41:10.551Z,88.02
2023-03-22T07:46:12.261Z,87.45
2023-03-22T07:51:13.722Z,86.60
2023-03-22T07:56:15.392Z,86.03
2023-03-22T08:01:16.796Z,85.08
2023-03-22T08:06:21.544Z,84.67
2023-03-22T08:11:23.072Z,82.59
2023-03-22T08:16:24.607Z,80.72
2023-03-22T08:21:26.196Z,80.04
2023-03-22T08:26:27.837Z,79.06
2023-03-22T08:31:29.563Z,79.27
2023-03-22T08:36:31.098Z,75.43
2023-03-22T08:41:32.528Z,75.63
2023-03-22T08:46:34.083Z,75.14
2023-03-22T08:51:35.917Z,76.10
2023-03-22T08:56:37.916Z,70.78
2023-03-22T09:01:39.474Z,73.53
2023-03-22T09:06:44.202Z,72.17
2023-03-22T09:11:46.272Z,71.22
2023-03-22T09:16:47.884Z,71.75
2023-03-22T09:21:50.008Z,69.89
2023-03-22T09:26:51.578Z,70.49
2023-03-22T09:31:53.591Z,69.40
2023-03-22T09:36:56.735Z,69.88
2023-03-22T09:42:04.093Z,69.72
2023-03-22T09:47:08.254Z,67.99
2023-03-22T09:52:14.964Z,68.45
2023-03-22T09:57:29.866Z,67.04
2023-03-22T10:02:49.225Z,67.97
2023-03-22T10:07:59.964Z,66.71
2023-03-22T10:13:10.251Z,66.08
2023-03-22T10:18:18.049Z,65.14
2023-03-22T10:23:46.694Z,62.97
2023-03-22T10:28:59.337Z,62.57
2023-03-22T10:34:23.907Z,62.09
2023-03-22T10:39:29.348Z,61.75
2023-03-22T10:44:37.042Z,62.99
2023-03-22T10:49:54.758Z,61.58
2023-03-22T10:55:01.243Z,62.19
2023-03-22T11:00:11.375Z,61.93
2023-03-22T11:05:25.310Z,62.97
2023-03-22T11:10:29.560Z,62.68
2023-03-22T11:15:33.247Z,61.83
2023-03-22T11:20:35.058Z,63.84
2023-03-22T11:25:43.878Z,62.77
2023-03-22T11:31:06.216Z,63.55
2023-03-22T11:36:18.216Z,62.61
2023-03-22T11:41:36.779Z,61.70
2023-03-22T11:46:39.116Z,62.51
2023-03-22T11:51:40.984Z,61.40
2023-03-22T11:56:45.539Z,62.15
2023-03-22T12:01:53.247Z,59.67
2023-03-22T12:06:58.261Z,60.00
2023-03-22T12:12:01.721Z,61.13
2023-03-22T12:17:11.176Z,59.31
2023-03-22T12:22:24.729Z,59.21
2023-03-22T12:27:38.727Z,59.53
2023-03-22T12:32:54.299Z,58.90
2023-03-22T12:37:58.314Z,59.18
2023-03-22T12:43:17.918Z,58.88
2023-03-22T12:48:28.059Z,54.49
2023-03-22T12:53:42.656Z,56.36
2023-03-22T12:58:49.845Z,53.11
2023-03-22T13:03:53.866Z,55.19
2023-03-22T13:09:16.234Z,51.76
2023-03-22T13:14:52.740Z,52.89
2023-03-22T13:20:20.078Z,52.26
2023-03-22T13:25:29.832Z,50.33
2023-03-22T13:30:49.417Z,51.37
2023-03-22T13:35:54.985Z,50.39
2023-03-22T13:41:14.783Z,49.43
2023-03-22T13:46:22.222Z,52.14
2023-03-22T13:51:32.139Z,51.57
2023-03-22T13:56:42.434Z,50.16
2023-03-22T14:01:50.177Z,51.10
2023-03-22T14:06:57.344Z,50.37
2023-03-22T14:12:03.368Z,50.85
2023-03-22T14:17:17.029Z,51.62
